Time;durP1;ratioP1;P1;durP2;ratioP2;P2;SDS_P1;SDS_P2;PMS_P1;PMS_P2;Temp;Humidity;BMP_temperature;BMP_pressure;BME280_temperature;BME280_humidity;BME280_pressure;Samples;Min_cycle;Max_cycle;Signal;HPM_P1;HPM_P2
2023/04/18 00:01:38;;;;;;;;;;;;;;;;;;5065868;28;19920;-77
2023/04/18 00:04:25;;;;;;;;;;;;;;;;;;5065586;28;19926;-76
2023/04/18 00:07:12;;;;;;;;;;;;;;;;;;5077192;28;19927;-77
2023/04/18 00:09:58;;;;;;;;;;;;;;;;;;5055202;28;19913;-77
2023/04/18 00:12:46;;;;;;;;;;;;;;;;;;5065265;28;19924;-77
2023/04/18 00:15:34;;;;;;;;;;;;;;;;;;5065741;28;19920;-77
2023/04/18 00:18:20;;;;;;;;;;;;;;;;;;5033013;28;20474;-77
2023/04/18 00:21:10;;;;;;;;;;;;;;;;;;5043115;28;19935;-77
2023/04/18 00:23:56;;;;;;;;;;;;;;;;;;5028276;28;19924;-77
2023/04/18 00:26:43;;;;;;;;;;;;;;;;;;5064111;28;20572;-76
2023/04/18 00:29:30;;;;;;;;;;;;;;;;;;5064723;28;19921;-75
2023/04/18 00:32:17;;;;;;;;;;;;;;;;;;5040387;28;19946;-76
2023/04/18 00:35:03;;;;;;;;;;;;;;;;;;5052755;28;19920;-76
2023/04/18 00:37:50;;;;;;;;;;;;;;;;;;5037252;28;20307;-76
2023/04/18 00:40:37;;;;;;;;;;;;;;;;;;5056812;28;19936;-76
2023/04/18 00:43:24;;;;;;;;;;;;;;;;;;5054363;28;19921;-76
2023/04/18 00:46:10;;;;;;;;;;;;;;;;;;5057182;28;20447;-76
2023/04/18 00:48:57;;;;;;;;;;;;;;;;;;5056557;28;19920;-76
2023/04/18 00:51:43;;;;;;;;;;;;;;;;;;5060599;28;19922;-76
2023/04/18 00:54:30;;;;;;;;;;;;;;;;;;5056657;28;19920;-76
2023/04/18 00:57:16;;;;;;;;;;;;;;;;;;5056551;28;20359;-76
2023/04/18 01:00:03;;;;;;;;;;;;;;;;;;5056594;28;19912;-76
2023/04/18 01:02:51;;;;;;;;;;;;;;;;;;5040533;28;19924;-76
2023/04/18 01:05:38;;;;;;;;;;;;;;;;;;5064395;28;19939;-75
2023/04/18 01:08:25;;;;;;;;;;;;;;;;;;5045529;28;19916;-77
2023/04/18 01:11:11;;;;;;;;;;;;;;;;;;5070824;28;19917;-76
2023/04/18 01:13:58;;;;;;;;;;;;;;;;;;5059880;28;20597;-76
2023/04/18 01:16:44;;;;;;;;;;;;;;;;;;5071765;28;20376;-76
2023/04/18 01:19:31;;;;;;;;;;;;;;;;;;5061148;28;19913;-76
2023/04/18 01:22:18;;;;;;;;;;;;;;;;;;5046762;28;19931;-76
2023/04/18 01:25:04;;;;;;;;;;;;;;;;;;5069293;28;19916;-76
2023/04/18 01:27:52;;;;;;;;;;;;;;;;;;5045878;28;19983;-76
2023/04/18 01:30:39;;;;;;;;;;;;;;;;;;5052088;28;19928;-76
2023/04/18 01:33:25;;;;;;;;;;;;;;;;;;5065132;28;19921;-75
2023/04/18 01:36:12;;;;;;;;;;;;;;;;;;5055504;28;19939;-75
2023/04/18 01:39:01;;;;;;;;;;;;;;;;;;5046538;28;20288;-76
2023/04/18 01:41:48;;;;;;;;;;;;;;;;;;5038117;28;19947;-75
2023/04/18 01:44:34;;;;;;;;;;;;;;;;;;5044155;28;19920;-75
2023/04/18 01:47:21;;;;;;;;;;;;;;;;;;5069883;28;20685;-75
2023/04/18 01:50:07;;;;;;;;;;;;;;;;;;5050129;28;19916;-75
2023/04/18 01:52:54;;;;;;;;;;;;;;;;;;5061274;28;19917;-75
2023/04/18 01:55:40;;;;;;;;;;;;;;;;;;5051781;28;19913;-75
2023/04/18 01:58:27;;;;;;;;;;;;;;;;;;5055063;28;19920;-76
2023/04/18 02:01:13;;;;;;;;;;;;;;;;;;5065485;28;19931;-76
2023/04/18 02:04:00;;;;;;;;;;;;;;;;;;5079105;28;20338;-75
2023/04/18 02:06:46;;;;;;;;;;;;;;;;;;5073763;28;19916;-76
2023/04/18 02:09:33;;;;;;;;;;;;;;;;;;5064200;28;19958;-76
2023/04/18 02:12:19;;;;;;;;;;;;;;;;;;5063133;28;19920;-76
2023/04/18 02:15:06;;;;;;;;;;;;;;;;;;5047326;28;19926;-75
2023/04/18 02:17:53;;;;;;;;;;;;;;;;;;5082841;28;19916;-75
2023/04/18 02:20:39;;;;;;;;;;;;;;;;;;5074607;28;19916;-76
2023/04/18 02:23:26;;;;;;;;;;;;;;;;;;5079151;28;19923;-76
2023/04/18 02:26:12;;;;;;;;;;;;;;;;;;5071359;28;19924;-75
2023/04/18 02:28:59;;;;;;;;;;;;;;;;;;5080144;28;19967;-76
2023/04/18 02:31:45;;;;;;;;;;;;;;;;;;5080050;28;19916;-76
2023/04/18 02:34:32;;;;;;;;;;;;;;;;;;5069335;28;19951;-76
2023/04/18 02:37:19;;;;;;;;;;;;;;;;;;5079299;28;19920;-76
2023/04/18 02:40:06;;;;;;;;;;;;;;;;;;5084649;28;19924;-76
2023/04/18 02:42:52;;;;;;;;;;;;;;;;;;5083147;28;19935;-75
2023/04/18 02:45:39;;;;;;;;;;;;;;;;;;5068757;28;19920;-76
2023/04/18 02:48:25;;;;;;;;;;;;;;;;;;5062441;28;20398;-76
2023/04/18 02:51:12;;;;;;;;;;;;;;;;;;5066824;28;19916;-76
2023/04/18 02:53:58;;;;;;;;;;;;;;;;;;5082268;28;19923;-75
2023/04/18 02:56:44;;;;;;;;;;;;;;;;;;5077259;28;19926;-76
2023/04/18 02:59:31;;;;;;;;;;;;;;;;;;5079925;28;19970;-76
2023/04/18 03:02:19;;;;;;;;;;;;;;;;;;5085041;28;19928;-76
2023/04/18 03:05:06;;;;;;;;;;;;;;;;;;5074438;28;19934;-76
2023/04/18 03:07:52;;;;;;;;;;;;;;;;;;5052780;28;19939;-76
2023/04/18 03:10:39;;;;;;;;;;;;;;;;;;5048981;28;19913;-76
2023/04/18 03:13:25;;;;;;;;;;;;;;;;;;5054888;28;19928;-76
2023/04/18 03:16:12;;;;;;;;;;;;;;;;;;5054585;28;19927;-76
2023/04/18 03:18:58;;;;;;;;;;;;;;;;;;5064785;28;19913;-76
2023/04/18 03:21:45;;;;;;;;;;;;;;;;;;5061729;28;19933;-76
2023/04/18 03:24:31;;;;;;;;;;;;;;;;;;5065218;28;19923;-75
2023/04/18 03:27:18;;;;;;;;;;;;;;;;;;5058779;28;19940;-75
2023/04/18 03:30:04;;;;;;;;;;;;;;;;;;5061063;28;19916;-76
2023/04/18 03:33:07;;;;;;;;;;;;;;;;;;5057631;27;19929;-76
2023/04/18 03:35:53;;;;;;;;;;;;;;;;;;5080464;28;19924;-75
2023/04/18 03:38:40;;;;;;;;;;;;;;;;;;5078596;28;19995;-76
2023/04/18 03:41:27;;;;;;;;;;;;;;;;;;5066362;28;19939;-76
2023/04/18 03:44:13;;;;;;;;;;;;;;;;;;5078044;28;19923;-77
2023/04/18 03:47:00;;;;;;;;;;;;;;;;;;5079535;28;19917;-76
2023/04/18 03:49:46;;;;;;;;;;;;;;;;;;5073803;28;19917;-76
2023/04/18 03:52:33;;;;;;;;;;;;;;;;;;5082297;28;20426;-76
2023/04/18 03:55:19;;;;;;;;;;;;;;;;;;5081765;28;19917;-76
2023/04/18 03:58:05;;;;;;;;;;;;;;;;;;5077461;28;19920;-76
2023/04/18 04:00:52;;;;;;;;;;;;;;;;;;5081010;28;19926;-76
2023/04/18 04:03:39;;;;;;;;;;;;;;;;;;5088875;28;19916;-76
2023/04/18 04:06:25;;;;;;;;;;;;;;;;;;5081234;28;19924;-75
2023/04/18 04:09:11;;;;;;;;;;;;;;;;;;5080252;28;19923;-76
2023/04/18 04:11:58;;;;;;;;;;;;;;;;;;5086600;28;19928;-76
2023/04/18 04:14:47;;;;;;;;;;;;;;;;;;5078623;28;19912;-76
2023/04/18 04:17:34;;;;;;;;;;;;;;;;;;5082390;28;19923;-76
2023/04/18 04:20:23;;;;;;;;;;;;;;;;;;5101507;28;19920;-75
2023/04/18 04:23:10;;;;;;;;;;;;;;;;;;5110144;27;19946;-76
2023/04/18 04:25:57;;;;;;;;;;;;;;;;;;5092234;28;20431;-76
2023/04/18 04:28:45;;;;;;;;;;;;;;;;;;5100929;28;19927;-76
2023/04/18 04:31:31;;;;;;;;;;;;;;;;;;5095674;28;19931;-76
2023/04/18 04:34:18;;;;;;;;;;;;;;;;;;5093586;28;19939;-75
2023/04/18 04:37:04;;;;;;;;;;;;;;;;;;5105673;27;19919;-76
2023/04/18 04:39:51;;;;;;;;;;;;;;;;;;5099382;28;20317;-76
2023/04/18 04:42:39;;;;;;;;;;;;;;;;;;5082744;28;19958;-76
2023/04/18 04:45:26;;;;;;;;;;;;;;;;;;5070769;28;19912;-76
2023/04/18 04:48:12;;;;;;;;;;;;;;;;;;5081462;28;19927;-76
2023/04/18 04:50:59;;;;;;;;;;;;;;;;;;5086978;28;19925;-76
2023/04/18 04:53:46;;;;;;;;;;;;;;;;;;5079986;28;20382;-76
2023/04/18 04:56:32;;;;;;;;;;;;;;;;;;5083831;28;19916;-76
2023/04/18 04:59:19;;;;;;;;;;;;;;;;;;5086469;28;19923;-76
2023/04/18 05:02:05;;;;;;;;;;;;;;;;;;5092656;28;19916;-76
2023/04/18 05:04:52;;;;;;;;;;;;;;;;;;5085431;28;19954;-76
2023/04/18 05:07:38;;;;;;;;;;;;;;;;;;5079579;28;19920;-76
2023/04/18 05:10:25;;;;;;;;;;;;;;;;;;5085564;28;19919;-76
2023/04/18 05:13:11;;;;;;;;;;;;;;;;;;5059957;28;19920;-76
2023/04/18 05:15:58;;;;;;;;;;;;;;;;;;5086490;28;20480;-75
2023/04/18 05:18:44;;;;;;;;;;;;;;;;;;5088040;28;19912;-78
2023/04/18 05:21:31;;;;;;;;;;;;;;;;;;5084421;28;19916;-76
2023/04/18 05:24:18;;;;;;;;;;;;;;;;;;5087364;28;19921;-76
2023/04/18 05:27:05;;;;;;;;;;;;;;;;;;5087411;28;19924;-77
2023/04/18 05:29:51;;;;;;;;;;;;;;;;;;5087097;28;19965;-77
2023/04/18 05:32:38;;;;;;;;;;;;;;;;;;5068829;28;19928;-77
2023/04/18 05:35:24;;;;;;;;;;;;;;;;;;5057614;28;19923;-77
2023/04/18 05:38:11;;;;;;;;;;;;;;;;;;5066333;28;19938;-77
2023/04/18 05:40:59;;;;;;;;;;;;;;;;;;5066661;28;19916;-77
2023/04/18 05:43:45;;;;;;;;;;;;;;;;;;5066508;28;19917;-77
2023/04/18 05:46:32;;;;;;;;;;;;;;;;;;5066034;28;19934;-77
2023/04/18 05:49:18;;;;;;;;;;;;;;;;;;5065631;28;19921;-77
2023/04/18 05:52:04;;;;;;;;;;;;;;;;;;5060051;28;20299;-77
2023/04/18 05:54:51;;;;;;;;;;;;;;;;;;5056563;28;20018;-77
2023/04/18 05:57:39;;;;;;;;;;;;;;;;;;5064253;28;19924;-77
2023/04/18 06:00:25;;;;;;;;;;;;;;;;;;5051501;28;19923;-77
2023/04/18 06:03:12;;;;;;;;;;;;;;;;;;5057799;28;19928;-77
2023/04/18 06:05:58;;;;;;;;;;;;;;;;;;5072516;28;19928;-77
2023/04/18 06:08:45;;;;;;;;;;;;;;;;;;5065678;28;19919;-76
2023/04/18 06:11:34;;;;;;;;;;;;;;;;;;5061207;28;20240;-77
2023/04/18 06:14:20;;;;;;;;;;;;;;;;;;5065848;28;19920;-77
2023/04/18 06:17:08;;;;;;;;;;;;;;;;;;5072184;28;19928;-77
2023/04/18 06:19:55;;;;;;;;;;;;;;;;;;5038960;28;20379;-77
2023/04/18 06:22:41;;;;;;;;;;;;;;;;;;5046626;28;19920;-77
2023/04/18 06:25:28;;;;;;;;;;;;;;;;;;5062706;28;19916;-76
2023/04/18 06:28:14;;;;;;;;;;;;;;;;;;5047125;28;20292;-77
2023/04/18 06:31:01;;;;;;;;;;;;;;;;;;5058398;28;20096;-77
2023/04/18 06:33:47;;;;;;;;;;;;;;;;;;5084921;28;19923;-77
2023/04/18 06:36:34;;;;;;;;;;;;;;;;;;5083949;28;20014;-76
2023/04/18 06:39:20;;;;;;;;;;;;;;;;;;5084964;28;19912;-76
2023/04/18 06:42:07;;;;;;;;;;;;;;;;;;5082938;28;20034;-76
2023/04/18 06:44:53;;;;;;;;;;;;;;;;;;5083349;28;19912;-76
2023/04/18 06:47:40;;;;;;;;;;;;;;;;;;5084349;28;19919;-76
2023/04/18 06:50:26;;;;;;;;;;;;;;;;;;5078637;28;19927;-76
2023/04/18 06:53:13;;;;;;;;;;;;;;;;;;5084511;28;19924;-76
2023/04/18 06:55:59;;;;;;;;;;;;;;;;;;5081966;28;19912;-76
2023/04/18 06:58:46;;;;;;;;;;;;;;;;;;5085764;28;19922;-75
2023/04/18 07:01:32;;;;;;;;;;;;;;;;;;5079810;28;19923;-76
2023/04/18 07:04:19;;;;;;;;;;;;;;;;;;5088497;28;19916;-76
2023/04/18 07:07:05;;;;;;;;;;;;;;;;;;5105122;28;19924;-77
2023/04/18 07:09:52;;;;;;;;;;;;;;;;;;5076955;28;19923;-76
2023/04/18 07:12:39;;;;;;;;;;;;;;;;;;5076441;28;20804;-76
2023/04/18 07:15:25;;;;;;;;;;;;;;;;;;5084635;28;19916;-76
2023/04/18 07:18:12;;;;;;;;;;;;;;;;;;5073968;28;19912;-76
2023/04/18 07:21:01;;;;;;;;;;;;;;;;;;5080103;28;20284;-76
2023/04/18 07:23:47;;;;;;;;;;;;;;;;;;5099432;28;19938;-76
2023/04/18 07:26:34;;;;;;;;;;;;;;;;;;5083199;28;19923;-75
2023/04/18 07:29:20;;;;;;;;;;;;;;;;;;5085230;28;19923;-76
2023/04/18 07:32:07;;;;;;;;;;;;;;;;;;5083524;28;19935;-76
2023/04/18 07:34:54;;;;;;;;;;;;;;;;;;5083977;28;19939;-75
2023/04/18 07:37:40;;;;;;;;;;;;;;;;;;5078475;28;19922;-76
2023/04/18 07:40:27;;;;;;;;;;;;;;;;;;5073884;28;19916;-75
2023/04/18 07:43:13;;;;;;;;;;;;;;;;;;5084493;28;19923;-75
2023/04/18 07:46:00;;;;;;;;;;;;;;;;;;5083341;28;19916;-76
2023/04/18 07:48:46;;;;;;;;;;;;;;;;;;5074947;28;19913;-74
2023/04/18 07:51:33;;;;;;;;;;;;;;;;;;5082319;28;20302;-75
2023/04/18 07:54:20;;;;;;;;;;;;;;;;;;5083262;28;19946;-75
2023/04/18 07:57:06;;;;;;;;;;;;;;;;;;5084732;28;19916;-76
2023/04/18 07:59:53;;;;;;;;;;;;;;;;;;5078607;28;20295;-76
2023/04/18 08:02:40;;;;;;;;;;;;;;;;;;5083792;28;19923;-75
2023/04/18 08:05:26;;;;;;;;;;;;;;;;;;5084285;28;19916;-76
2023/04/18 08:08:13;;;;;;;;;;;;;;;;;;5076578;28;20367;-76
2023/04/18 08:11:00;;;;;;;;;;;;;;;;;;5082168;28;19938;-76
2023/04/18 08:13:46;;;;;;;;;;;;;;;;;;5092521;28;19935;-76
2023/04/18 08:16:32;;;;;;;;;;;;;;;;;;5093808;28;20365;-75
2023/04/18 08:19:19;;;;;;;;;;;;;;;;;;5105430;28;19920;-76
2023/04/18 08:22:05;;;;;;;;;;;;;;;;;;5081246;28;19912;-76
2023/04/18 08:24:52;;;;;;;;;;;;;;;;;;5087875;28;19931;-76
2023/04/18 08:27:38;;;;;;;;;;;;;;;;;;5078792;28;19912;-75
2023/04/18 08:30:25;;;;;;;;;;;;;;;;;;5085631;28;19920;-76
2023/04/18 08:33:11;;;;;;;;;;;;;;;;;;5086814;28;19947;-75
2023/04/18 08:35:58;;;;;;;;;;;;;;;;;;5081585;28;19920;-75
2023/04/18 08:38:45;;;;;;;;;;;;;;;;;;5088115;28;19920;-76
2023/04/18 08:41:32;;;;;;;;;;;;;;;;;;5107277;28;19912;-76
2023/04/18 08:44:18;;;;;;;;;;;;;;;;;;5107756;28;19924;-75
2023/04/18 08:47:05;;;;;;;;;;;;;;;;;;5101323;28;19912;-75
2023/04/18 08:49:52;;;;;;;;;;;;;;;;;;5106776;28;19920;-75
2023/04/18 08:52:39;;;;;;;;;;;;;;;;;;5106934;28;19924;-75
2023/04/18 08:55:25;;;;;;;;;;;;;;;;;;5106181;28;19927;-76
2023/04/18 08:58:12;;;;;;;;;;;;;;;;;;5107186;28;19916;-75
2023/04/18 09:00:59;;;;;;;;;;;;;;;;;;5100391;28;19926;-75
2023/04/18 09:03:46;;;;;;;;;;;;;;;;;;5109956;27;20491;-76
2023/04/18 09:06:34;;;;;;;;;;;;;;;;;;5081366;28;20009;-74
2023/04/18 09:09:26;;;;;;;;;;;;;;;;;;5069031;28;19916;-76
2023/04/18 09:12:16;;;;;;;;;;;;;;;;;;5086683;28;19920;-81
2023/04/18 09:15:03;;;;;;;;;;;;;;;;;;5104132;28;19920;-76
2023/04/18 09:17:51;;;;;;;;;;;;;;;;;;5088884;28;19916;-77
2023/04/18 09:20:40;;;;;;;;;;;;;;;;;;5082005;28;20368;-76
2023/04/18 09:23:26;;;;;;;;;;;;;;;;;;5087707;28;19919;-76
2023/04/18 09:26:13;;;;;;;;;;;;;;;;;;5081756;28;20298;-77
2023/04/18 09:28:59;;;;;;;;;;;;;;;;;;5075149;28;19919;-77
2023/04/18 09:31:46;;;;;;;;;;;;;;;;;;5091002;28;19923;-76
2023/04/18 09:34:32;;;;;;;;;;;;;;;;;;5106712;28;19916;-77
2023/04/18 09:37:19;;;;;;;;;;;;;;;;;;5107393;28;19920;-77
2023/04/18 09:40:06;;;;;;;;;;;;;;;;;;5105857;28;20501;-77
2023/04/18 09:42:55;;;;;;;;;;;;;;;;;;5075595;28;20835;-76
2023/04/18 09:45:41;;;;;;;;;;;;;;;;;;5085662;28;19926;-77
2023/04/18 09:48:28;;;;;;;;;;;;;;;;;;5085544;28;19920;-76
2023/04/18 09:51:15;;;;;;;;;;;;;;;;;;5086245;28;20466;-76
2023/04/18 09:54:01;;;;;;;;;;;;;;;;;;5085122;28;20297;-77
2023/04/18 09:56:52;;;;;;;;;;;;;;;;;;5079450;28;20555;-76
2023/04/18 09:59:39;;;;;;;;;;;;;;;;;;5084826;28;20291;-77
2023/04/18 10:02:25;;;;;;;;;;;;;;;;;;5083709;28;19916;-77
2023/04/18 10:05:12;;;;;;;;;;;;;;;;;;5086988;28;20390;-77
2023/04/18 10:07:58;;;;;;;;;;;;;;;;;;5073642;28;20660;-75
2023/04/18 10:10:45;;;;;;;;;;;;;;;;;;5102255;28;19923;-77
2023/04/18 10:13:31;;;;;;;;;;;;;;;;;;5105722;28;19931;-77
2023/04/18 10:16:19;;;;;;;;;;;;;;;;;;5104829;28;20298;-76
2023/04/18 10:19:05;;;;;;;;;;;;;;;;;;5106827;28;19942;-78
2023/04/18 10:21:52;;;;;;;;;;;;;;;;;;5099731;27;19922;-76
2023/04/18 10:24:38;;;;;;;;;;;;;;;;;;5077529;28;19916;-76
2023/04/18 10:27:25;;;;;;;;;;;;;;;;;;5081881;28;20340;-76
2023/04/18 10:30:11;;;;;;;;;;;;;;;;;;5092120;28;19919;-75
2023/04/18 10:32:58;;;;;;;;;;;;;;;;;;5105057;28;19927;-77
2023/04/18 10:35:44;;;;;;;;;;;;;;;;;;5100043;27;20381;-75
2023/04/18 10:38:31;;;;;;;;;;;;;;;;;;5103167;28;20349;-76
2023/04/18 10:41:17;;;;;;;;;;;;;;;;;;5101075;28;19920;-77
2023/04/18 10:44:04;;;;;;;;;;;;;;;;;;5106277;28;20034;-76
2023/04/18 10:46:50;;;;;;;;;;;;;;;;;;5097016;28;20302;-76
2023/04/18 10:49:37;;;;;;;;;;;;;;;;;;5104504;28;20027;-76
2023/04/18 10:52:23;;;;;;;;;;;;;;;;;;5100644;28;19947;-77
2023/04/18 10:55:10;;;;;;;;;;;;;;;;;;5106090;28;20370;-77
2023/04/18 10:57:56;;;;;;;;;;;;;;;;;;5080343;28;19920;-76
2023/04/18 11:00:43;;;;;;;;;;;;;;;;;;5082607;28;19924;-76
2023/04/18 11:03:29;;;;;;;;;;;;;;;;;;5077190;28;19916;-77
2023/04/18 11:06:16;;;;;;;;;;;;;;;;;;5085698;28;20423;-77
2023/04/18 11:09:02;;;;;;;;;;;;;;;;;;5084900;28;19916;-76
2023/04/18 11:11:49;;;;;;;;;;;;;;;;;;5084780;28;19920;-76
2023/04/18 11:14:35;;;;;;;;;;;;;;;;;;5083099;28;19917;-77
2023/04/18 11:17:32;;;;;;;;;;;;;;;;;;;;;
2023/04/18 11:20:21;;;;;;;;;;;;;;;;;;5083136;28;19927;-77
2023/04/18 11:23:08;;;;;;;;;;;;;;;;;;5078943;28;19951;-75
2023/04/18 11:25:55;;;;;;;;;;;;;;;;;;5081663;28;19966;-76
2023/04/18 11:28:41;;;;;;;;;;;;;;;;;;5084839;28;19920;-77
2023/04/18 11:31:28;;;;;;;;;;;;;;;;;;5084236;28;19923;-76
2023/04/18 11:34:15;;;;;;;;;;;;;;;;;;5077980;28;19947;-77
2023/04/18 11:37:01;;;;;;;;;;;;;;;;;;5078606;28;19920;-76
2023/04/18 11:39:48;;;;;;;;;;;;;;;;;;5101341;28;19930;-76
2023/04/18 11:42:34;;;;;;;;;;;;;;;;;;5085298;28;19923;-77
2023/04/18 11:45:21;;;;;;;;;;;;;;;;;;5084067;28;19912;-76
2023/04/18 11:48:07;;;;;;;;;;;;;;;;;;5082715;28;19923;-77
2023/04/18 11:50:53;;;;;;;;;;;;;;;;;;5102792;27;19927;-77
2023/04/18 11:53:40;;;;;;;;;;;;;;;;;;5078436;28;20441;-76
2023/04/18 11:56:26;;;;;;;;;;;;;;;;;;5088591;28;20374;-76
2023/04/18 11:59:13;;;;;;;;;;;;;;;;;;5087805;28;19916;-77
2023/04/18 12:02:00;;;;;;;;;;;;;;;;;;5101615;28;19930;-77
2023/04/18 12:04:47;;;;;;;;;;;;;;;;;;5107713;28;20637;-75
2023/04/18 12:07:33;;;;;;;;;;;;;;;;;;5104942;28;19923;-76
2023/04/18 12:10:20;;;;;;;;;;;;;;;;;;5106837;28;20030;-75
2023/04/18 12:13:07;;;;;;;;;;;;;;;;;;5108464;28;19924;-76
2023/04/18 12:15:53;;;;;;;;;;;;;;;;;;5098396;28;19942;-76
2023/04/18 12:18:40;;;;;;;;;;;;;;;;;;5092024;28;19915;-76
2023/04/18 12:21:29;;;;;;;;;;;;;;;;;;5085823;28;19931;-76
2023/04/18 12:24:15;;;;;;;;;;;;;;;;;;5088363;28;19961;-76
2023/04/18 12:27:02;;;;;;;;;;;;;;;;;;5104044;28;19927;-76
2023/04/18 12:29:48;;;;;;;;;;;;;;;;;;5076158;28;19916;-76
2023/04/18 12:32:35;;;;;;;;;;;;;;;;;;5084846;28;19935;-76
2023/04/18 12:35:21;;;;;;;;;;;;;;;;;;5084446;28;19927;-75
2023/04/18 12:38:08;;;;;;;;;;;;;;;;;;5087351;28;20476;-75
2023/04/18 12:40:54;;;;;;;;;;;;;;;;;;5092807;28;19922;-76
2023/04/18 12:43:41;;;;;;;;;;;;;;;;;;5087149;28;19939;-76
2023/04/18 12:46:27;;;;;;;;;;;;;;;;;;5086657;28;19934;-76
2023/04/18 12:49:14;;;;;;;;;;;;;;;;;;5087066;28;19916;-76
2023/04/18 12:52:00;;;;;;;;;;;;;;;;;;5087301;28;19920;-76
2023/04/18 12:54:47;;;;;;;;;;;;;;;;;;5086382;28;20364;-75
2023/04/18 12:57:33;;;;;;;;;;;;;;;;;;5082598;28;19924;-76
2023/04/18 13:00:20;;;;;;;;;;;;;;;;;;5087850;28;19927;-76
2023/04/18 13:03:06;;;;;;;;;;;;;;;;;;5082429;28;19920;-76
2023/04/18 13:05:53;;;;;;;;;;;;;;;;;;5107444;28;19920;-75
2023/04/18 13:08:39;;;;;;;;;;;;;;;;;;5107022;28;19920;-76
2023/04/18 13:11:27;;;;;;;;;;;;;;;;;;5091336;28;20434;-75
2023/04/18 13:14:15;;;;;;;;;;;;;;;;;;5086702;28;19928;-75
2023/04/18 13:17:01;;;;;;;;;;;;;;;;;;5088492;28;20313;-75
2023/04/18 13:19:47;;;;;;;;;;;;;;;;;;5074378;28;20368;-76
2023/04/18 13:22:34;;;;;;;;;;;;;;;;;;5076634;28;19923;-76
2023/04/18 13:25:21;;;;;;;;;;;;;;;;;;5087395;28;19912;-76
2023/04/18 13:28:07;;;;;;;;;;;;;;;;;;5085810;28;19916;-76
2023/04/18 13:30:54;;;;;;;;;;;;;;;;;;5086750;28;20295;-75
2023/04/18 13:33:40;;;;;;;;;;;;;;;;;;5085202;28;19924;-76
2023/04/18 13:36:27;;;;;;;;;;;;;;;;;;5086158;28;19920;-76
2023/04/18 13:39:13;;;;;;;;;;;;;;;;;;5085577;28;19923;-81
2023/04/18 13:42:03;;;;;;;;;;;;;;;;;;5069513;28;19920;-76
2023/04/18 13:44:49;;;;;;;;;;;;;;;;;;5093979;28;19916;-75
2023/04/18 13:47:36;;;;;;;;;;;;;;;;;;5086007;28;20378;-76
2023/04/18 13:50:22;;;;;;;;;;;;;;;;;;5086695;28;20404;-76
2023/04/18 13:53:09;;;;;;;;;;;;;;;;;;5074283;28;19930;-75
2023/04/18 13:55:55;;;;;;;;;;;;;;;;;;5084934;28;19924;-76
2023/04/18 13:58:42;;;;;;;;;;;;;;;;;;5084778;28;20291;-76
2023/04/18 14:01:28;;;;;;;;;;;;;;;;;;5084335;28;19912;-76
2023/04/18 14:04:15;;;;;;;;;;;;;;;;;;5083701;28;19912;-76
2023/04/18 14:07:01;;;;;;;;;;;;;;;;;;5086566;28;19923;-76
2023/04/18 14:09:48;;;;;;;;;;;;;;;;;;5086778;28;19916;-76
2023/04/18 14:12:34;;;;;;;;;;;;;;;;;;5081759;28;19924;-76
2023/04/18 14:15:21;;;;;;;;;;;;;;;;;;5086155;28;20271;-76
2023/04/18 14:18:07;;;;;;;;;;;;;;;;;;5077708;28;19920;-76
2023/04/18 14:20:56;;;;;;;;;;;;;;;;;;5084305;28;20268;-76
2023/04/18 14:23:43;;;;;;;;;;;;;;;;;;5085253;28;19969;-76
2023/04/18 14:26:29;;;;;;;;;;;;;;;;;;5084761;28;19927;-76
2023/04/18 14:29:16;;;;;;;;;;;;;;;;;;5077956;28;19916;-75
2023/04/18 14:32:02;;;;;;;;;;;;;;;;;;5085055;28;20377;-76
2023/04/18 14:34:49;;;;;;;;;;;;;;;;;;5086047;28;19943;-76
2023/04/18 14:37:35;;;;;;;;;;;;;;;;;;5084856;28;19923;-76
2023/04/18 14:40:22;;;;;;;;;;;;;;;;;;5073897;28;19912;-75
2023/04/18 14:43:08;;;;;;;;;;;;;;;;;;5084957;28;19950;-76
2023/04/18 14:45:55;;;;;;;;;;;;;;;;;;5103438;28;19923;-75
2023/04/18 14:48:41;;;;;;;;;;;;;;;;;;5105391;28;19934;-75
2023/04/18 14:51:28;;;;;;;;;;;;;;;;;;5104809;28;19916;-76
2023/04/18 14:54:15;;;;;;;;;;;;;;;;;;5105035;28;19930;-76
2023/04/18 14:57:01;;;;;;;;;;;;;;;;;;5088829;28;19920;-76
2023/04/18 14:59:48;;;;;;;;;;;;;;;;;;5069857;28;19916;-76
2023/04/18 15:02:35;;;;;;;;;;;;;;;;;;5082464;28;19928;-76
2023/04/18 15:05:25;;;;;;;;;;;;;;;;;;5100885;28;19918;-76
2023/04/18 15:08:11;;;;;;;;;;;;;;;;;;5104167;28;19922;-76
2023/04/18 15:10:58;;;;;;;;;;;;;;;;;;5081620;28;19990;-76
2023/04/18 15:13:46;;;;;;;;;;;;;;;;;;5084597;28;19931;-76
2023/04/18 15:16:34;;;;;;;;;;;;;;;;;;5077926;28;19916;-76
2023/04/18 15:19:20;;;;;;;;;;;;;;;;;;5082670;28;20409;-75
2023/04/18 15:22:07;;;;;;;;;;;;;;;;;;5082722;28;19916;-76
2023/04/18 15:24:54;;;;;;;;;;;;;;;;;;5101161;28;19919;-76
2023/04/18 15:27:40;;;;;;;;;;;;;;;;;;5098161;28;20386;-76
2023/04/18 15:30:27;;;;;;;;;;;;;;;;;;5104402;28;19911;-75
2023/04/18 15:33:14;;;;;;;;;;;;;;;;;;5104363;28;19950;-76
2023/04/18 15:36:01;;;;;;;;;;;;;;;;;;5099672;28;19920;-76
2023/04/18 15:38:47;;;;;;;;;;;;;;;;;;5104990;28;19927;-77
2023/04/18 15:41:33;;;;;;;;;;;;;;;;;;5104596;28;19924;-77
2023/04/18 15:44:20;;;;;;;;;;;;;;;;;;5089910;28;19976;-76
2023/04/18 15:47:06;;;;;;;;;;;;;;;;;;5079503;28;19920;-76
2023/04/18 15:49:53;;;;;;;;;;;;;;;;;;5084510;28;19916;-75
2023/04/18 15:52:40;;;;;;;;;;;;;;;;;;5083590;28;19924;-75
2023/04/18 15:55:26;;;;;;;;;;;;;;;;;;5082994;28;20276;-76
2023/04/18 15:58:13;;;;;;;;;;;;;;;;;;5080488;28;19921;-76
2023/04/18 16:01:00;;;;;;;;;;;;;;;;;;5085171;28;20379;-76
2023/04/18 16:03:46;;;;;;;;;;;;;;;;;;5083963;28;19912;-76
2023/04/18 16:06:33;;;;;;;;;;;;;;;;;;5073796;28;20359;-76
2023/04/18 16:09:19;;;;;;;;;;;;;;;;;;5082475;28;19919;-77
2023/04/18 16:12:07;;;;;;;;;;;;;;;;;;5077043;28;19922;-76
2023/04/18 16:14:53;;;;;;;;;;;;;;;;;;5074849;28;19939;-75
2023/04/18 16:17:39;;;;;;;;;;;;;;;;;;5083381;28;20322;-76
2023/04/18 16:20:26;;;;;;;;;;;;;;;;;;5083918;28;19920;-75
2023/04/18 16:23:12;;;;;;;;;;;;;;;;;;5084804;28;20660;-77
2023/04/18 16:25:59;;;;;;;;;;;;;;;;;;5092675;28;19916;-77
2023/04/18 16:28:47;;;;;;;;;;;;;;;;;;5082742;28;19939;-76
2023/04/18 16:31:33;;;;;;;;;;;;;;;;;;5089482;28;19928;-76
2023/04/18 16:34:20;;;;;;;;;;;;;;;;;;5075885;28;19932;-75
2023/04/18 16:37:06;;;;;;;;;;;;;;;;;;5072734;28;19913;-76
2023/04/18 16:39:53;;;;;;;;;;;;;;;;;;5049441;28;19916;-76
2023/04/18 16:42:39;;;;;;;;;;;;;;;;;;5088259;28;19912;-76
2023/04/18 16:45:26;;;;;;;;;;;;;;;;;;5065634;28;19923;-75
2023/04/18 16:48:12;;;;;;;;;;;;;;;;;;5076712;28;19922;-76
2023/04/18 16:50:59;;;;;;;;;;;;;;;;;;5087512;28;20403;-76
2023/04/18 16:53:46;;;;;;;;;;;;;;;;;;5088065;28;19920;-77
2023/04/18 16:56:32;;;;;;;;;;;;;;;;;;5072433;28;19916;-77
2023/04/18 16:59:19;;;;;;;;;;;;;;;;;;5076055;28;20303;-78
2023/04/18 17:02:05;;;;;;;;;;;;;;;;;;5089108;28;19916;-75
2023/04/18 17:04:52;;;;;;;;;;;;;;;;;;5076854;28;19916;-76
2023/04/18 17:07:38;;;;;;;;;;;;;;;;;;5085740;28;19917;-75
2023/04/18 17:10:25;;;;;;;;;;;;;;;;;;5085267;28;19923;-76
2023/04/18 17:13:11;;;;;;;;;;;;;;;;;;5072814;28;19931;-76
2023/04/18 17:15:58;;;;;;;;;;;;;;;;;;5082915;28;20368;-77
2023/04/18 17:18:44;;;;;;;;;;;;;;;;;;5070037;28;19928;-75
2023/04/18 17:21:31;;;;;;;;;;;;;;;;;;5074853;28;19947;-76
2023/04/18 17:24:21;;;;;;;;;;;;;;;;;;5081355;28;19917;-76
2023/04/18 17:27:07;;;;;;;;;;;;;;;;;;5071926;28;19954;-76
2023/04/18 17:29:54;;;;;;;;;;;;;;;;;;5086804;28;19924;-76
2023/04/18 17:32:44;;;;;;;;;;;;;;;;;;5085366;28;19928;-76
2023/04/18 17:35:31;;;;;;;;;;;;;;;;;;5084734;28;19920;-76
2023/04/18 17:38:17;;;;;;;;;;;;;;;;;;5086917;28;19923;-79
2023/04/18 17:41:04;;;;;;;;;;;;;;;;;;5070739;28;20011;-76
2023/04/18 17:43:50;;;;;;;;;;;;;;;;;;5077720;28;19913;-76
2023/04/18 17:46:37;;;;;;;;;;;;;;;;;;5085441;28;19966;-77
2023/04/18 17:49:29;;;;;;;;;;;;;;;;;;5085372;28;20720;-76
2023/04/18 17:52:16;;;;;;;;;;;;;;;;;;5080679;28;19920;-77
2023/04/18 17:55:03;;;;;;;;;;;;;;;;;;5071489;28;19924;-77
2023/04/18 17:57:49;;;;;;;;;;;;;;;;;;5084796;28;19923;-77
2023/04/18 18:00:36;;;;;;;;;;;;;;;;;;5081307;28;19919;-76
2023/04/18 18:03:22;;;;;;;;;;;;;;;;;;5077054;28;19927;-77
2023/04/18 18:06:09;;;;;;;;;;;;;;;;;;5085866;28;19927;-77
2023/04/18 18:08:55;;;;;;;;;;;;;;;;;;5070984;28;20367;-75
2023/04/18 18:11:42;;;;;;;;;;;;;;;;;;5082549;28;20300;-75
2023/04/18 18:14:28;;;;;;;;;;;;;;;;;;5070898;28;19928;-76
2023/04/18 18:17:15;;;;;;;;;;;;;;;;;;5085476;28;19916;-76
2023/04/18 18:20:01;;;;;;;;;;;;;;;;;;5078958;28;19923;-76
2023/04/18 18:22:48;;;;;;;;;;;;;;;;;;5085833;28;20297;-76
2023/04/18 18:25:35;;;;;;;;;;;;;;;;;;5084895;28;20673;-76
2023/04/18 18:28:22;;;;;;;;;;;;;;;;;;5083364;28;19919;-76
2023/04/18 18:31:08;;;;;;;;;;;;;;;;;;5082582;28;19921;-76
2023/04/18 18:33:55;;;;;;;;;;;;;;;;;;5056947;28;19925;-76
2023/04/18 18:36:41;;;;;;;;;;;;;;;;;;5062591;28;19932;-76
2023/04/18 18:39:28;;;;;;;;;;;;;;;;;;5052351;28;19939;-76
2023/04/18 18:42:14;;;;;;;;;;;;;;;;;;5066643;28;19920;-76
2023/04/18 18:45:01;;;;;;;;;;;;;;;;;;5063973;28;19920;-76
2023/04/18 18:47:47;;;;;;;;;;;;;;;;;;5070555;28;20477;-76
2023/04/18 18:50:34;;;;;;;;;;;;;;;;;;5065462;28;20003;-76
2023/04/18 18:53:21;;;;;;;;;;;;;;;;;;5065720;28;19936;-75
2023/04/18 18:56:07;;;;;;;;;;;;;;;;;;5060649;28;19943;-75
2023/04/18 18:58:57;;;;;;;;;;;;;;;;;;5057315;28;19913;-76